Aviation Digital Data Service (ADDS)

Output produced by TAFs form (1542 UTC 22 August 2014)
found at http://aviationweather.gov/adds/tafs/
 
KTCC 221133Z 2212/2312 19008KT P6SM VCSH BKN130 
     FM221500 22010G18KT P6SM SCT120 
     FM221900 21017G27KT P6SM VCSH BKN120 
     FM222200 22018G28KT P6SM VCTS SCT070CB BKN100 
     TEMPO 2222/2301 VRB15G25KT 6SM -TSRA BKN070CB 
     FM230100 22010KT P6SM VCSH BKN100 
     FM230600 23010KT P6SM SCT100